Khujada 2 — 2FTH3 — position and weather

sailwx.info

Track history (hours):
 
Tides and Currents Weather Stations Pressure Air Temp Water Temp Dewpoint Dewpoint Depression Visibility Wind Speed Wind Dir Waves Ship Positions

Khujada 2

Last reported at 2017-Aug-17 05:19 UTC. Time now 2017-Sep-25 13:42 UTC.
Position N 47°35' W 003°01'.
Warning: this ship's position is 39 days out of date.

Length 13 m.

Type: Sailing vessel. MMSI: 235094063.

Date/timePositionNaut miles runAvg speedWind from/ knotsBaromVisibWave heightAir tempDewpointWater temp
2017-Aug-17 05:19N 47°35' W 003°01'0 0.0
2017-Aug-17 04:54N 47°35' W 003°01'0 0.0
2017-Aug-16 18:04N 47°35' W 003°01'0 0.0
2017-Aug-16 17:58N 47°35' W 003°01'0 0.0
2017-Aug-15 13:53N 47°35' W 003°01'0 0.0
2017-Aug-15 13:29N 47°35' W 003°01'0 0.3
2017-Aug-15 13:00N 47°35' W 003°01'0 0.0
2017-Aug-15 12:30N 47°35' W 003°01'0 0.0
2017-Aug-15 12:00N 47°35' W 003°01'0 0.0
2017-Aug-15 11:30N 47°35' W 003°01'0 0.0
2017-Aug-15 11:00N 47°35' W 003°01'0 0.0
2017-Aug-15 10:30N 47°35' W 003°01'0 0.0
2017-Aug-15 10:00N 47°35' W 003°01'2 3.8
2017-Aug-15 09:30N 47°33' W 003°01'3 5.8
2017-Aug-15 09:00N 47°31' W 003°01'3 5.7
2017-Aug-15 08:30N 47°28' W 003°02'2 4.8
2017-Aug-15 08:00N 47°26' W 003°04'3 5.6
2017-Aug-15 07:30N 47°25' W 003°08'3 6.0
2017-Aug-15 07:00N 47°23' W 003°12'1 0.1
2017-Aug-14 09:44N 47°22' W 003°13'0 0.0
2017-Aug-14 09:29N 47°22' W 003°13'0 0.0
2017-Aug-14 08:53N 47°22' W 003°13'0 0.0
2017-Aug-14 08:26N 47°22' W 003°13'0 0.0
2017-Aug-14 08:00N 47°22' W 003°13'3 5.4
2017-Aug-14 07:30N 47°23' W 003°09'3 6.3
2017-Aug-14 07:00N 47°24' W 003°05'3 5.9
2017-Aug-14 06:30N 47°24' W 003°01'1 0.1
2017-Aug-13 14:10N 47°24' W 002°59'0 0.0
2017-Aug-13 13:58N 47°24' W 002°59'2 3.6
2017-Aug-13 13:30N 47°26' W 002°59'3 6.8
2017-Aug-13 13:00N 47°29' W 002°59'3 6.1
2017-Aug-13 12:30N 47°32' W 003°00'3 5.8
2017-Aug-13 12:00N 47°35' W 003°01'1 0.0
2017-Aug-12 12:05N 47°35' W 003°01'0 0.0
2017-Aug-12 11:59N 47°35' W 003°01'0 0.0
2017-Aug-12 11:29N 47°35' W 003°01'0 0.7
2017-Aug-12 11:00N 47°35' W 003°01'3 5.4
2017-Aug-12 10:30N 47°32' W 003°01'3 6.2
2017-Aug-12 10:00N 47°29' W 003°02'2 4.9
2017-Aug-12 09:30N 47°27' W 003°02'2 3.4
2017-Aug-12 09:00N 47°26' W 003°05'2 4.6
2017-Aug-12 08:30N 47°27' W 003°08'3 6.5
2017-Aug-12 08:00N 47°29' W 003°12'3 6.7
2017-Aug-12 07:30N 47°31' W 003°16'4 7.4
2017-Aug-12 07:00N 47°34' W 003°20'4 7.3
2017-Aug-12 06:30N 47°36' W 003°23'2 3.5
2017-Aug-12 06:00N 47°38' W 003°25'0 0.0
2017-Aug-11 10:25N 47°38' W 003°25'0 0.0
2017-Aug-11 10:00N 47°38' W 003°25'2 4.3
2017-Aug-11 09:30N 47°39' W 003°27'2 4.6
2017-Aug-11 09:00N 47°40' W 003°31'3 5.9
2017-Aug-11 08:30N 47°41' W 003°35'3 6.0
2017-Aug-11 08:00N 47°42' W 003°39'12 6.0
2017-Aug-11 05:58N 47°44' W 003°57'2 0.1
2017-Aug-10 09:58N 47°43' W 003°59'7 6.8
2017-Aug-10 08:58N 47°50' W 003°57'3 0.1
2017-Aug-08 05:43N 47°53' W 003°58'4 4.6
2017-Aug-08 04:53N 47°49' W 003°59'7 5.4
2017-Aug-08 03:38N 47°45' W 004°07'4 6.3
2017-Aug-08 02:58N 47°45' W 004°13'6 5.9
2017-Aug-08 01:58N 47°46' W 004°22'6 5.4
2017-Aug-08 00:53N 47°50' W 004°28'5 5.4
2017-Aug-07 23:58N 47°53' W 004°33'2 5.0
2017-Aug-07 23:29N 47°55' W 004°36'2 4.5
2017-Aug-07 23:00N 47°56' W 004°38'2 4.2
2017-Aug-07 22:30N 47°58' W 004°41'2 4.3
2017-Aug-07 22:00N 47°59' W 004°43'2 4.5
2017-Aug-07 21:30N 48°01' W 004°45'3 6.1
2017-Aug-07 21:01N 48°04' W 004°46'4 8.3
2017-Aug-07 20:31N 48°08' W 004°44'4 8.4
2017-Aug-07 20:00N 48°12' W 004°43'4 8.2
2017-Aug-07 19:30N 48°16' W 004°40'3 6.7
2017-Aug-07 19:00N 48°17' W 004°35'0 0.1
2017-Aug-07 18:30N 48°17' W 004°35'2 4.3
2017-Aug-07 18:00N 48°18' W 004°38'3 6.8
2017-Aug-07 17:30N 48°18' W 004°43'3 6.4
2017-Aug-07 17:00N 48°20' W 004°47'4 7.4
2017-Aug-07 16:29N 48°23' W 004°49'3 6.2
2017-Aug-07 15:59N 48°26' W 004°50'3 5.7
2017-Aug-07 15:30N 48°29' W 004°49'2 4.7
2017-Aug-07 15:00N 48°31' W 004°48'3 5.0
2017-Aug-07 14:30N 48°33' W 004°45'2 4.5
2017-Aug-07 14:01N 48°35' W 004°43'3 5.4
2017-Aug-07 13:30N 48°37' W 004°40'2 4.3
2017-Aug-07 13:00N 48°37' W 004°37'1 0.3
2017-Aug-07 08:18N 48°37' W 004°35'2 4.8
2017-Aug-07 07:58N 48°37' W 004°38'2 5.1
2017-Aug-07 07:29N 48°40' W 004°36'  
Track history (hours):
 
Tides and Currents Weather Stations Pressure Air Temp Water Temp Dewpoint Dewpoint Depression Visibility Wind Speed Wind Dir Waves Ship Positions

Khujada 2

Last reported at 2017-Aug-17 05:19 UTC. Time now 2017-Sep-25 13:42 UTC.
Position N 47°35' W 003°01'.
Warning: this ship's position is 39 days out of date.

Length 13 m.

Type: Sailing vessel. MMSI: 235094063.

Date/timePositionNaut miles runAvg speedWind from/ knotsBaromVisibWave heightAir tempDewpointWater temp
2017-Aug-17 05:19N 47°35' W 003°01'0 0.0
2017-Aug-17 04:54N 47°35' W 003°01'0 0.0
2017-Aug-16 18:04N 47°35' W 003°01'0 0.0
2017-Aug-16 17:58N 47°35' W 003°01'0 0.0
2017-Aug-15 13:53N 47°35' W 003°01'0 0.0
2017-Aug-15 13:29N 47°35' W 003°01'0 0.3
2017-Aug-15 13:00N 47°35' W 003°01'0 0.0
2017-Aug-15 12:30N 47°35' W 003°01'0 0.0
2017-Aug-15 12:00N 47°35' W 003°01'0 0.0
2017-Aug-15 11:30N 47°35' W 003°01'0 0.0
2017-Aug-15 11:00N 47°35' W 003°01'0 0.0
2017-Aug-15 10:30N 47°35' W 003°01'0 0.0
2017-Aug-15 10:00N 47°35' W 003°01'2 3.8
2017-Aug-15 09:30N 47°33' W 003°01'3 5.8
2017-Aug-15 09:00N 47°31' W 003°01'3 5.7
2017-Aug-15 08:30N 47°28' W 003°02'2 4.8
2017-Aug-15 08:00N 47°26' W 003°04'3 5.6
2017-Aug-15 07:30N 47°25' W 003°08'3 6.0
2017-Aug-15 07:00N 47°23' W 003°12'1 0.1
2017-Aug-14 09:44N 47°22' W 003°13'0 0.0
2017-Aug-14 09:29N 47°22' W 003°13'0 0.0
2017-Aug-14 08:53N 47°22' W 003°13'0 0.0
2017-Aug-14 08:26N 47°22' W 003°13'0 0.0
2017-Aug-14 08:00N 47°22' W 003°13'3 5.4
2017-Aug-14 07:30N 47°23' W 003°09'3 6.3
2017-Aug-14 07:00N 47°24' W 003°05'3 5.9
2017-Aug-14 06:30N 47°24' W 003°01'1 0.1
2017-Aug-13 14:10N 47°24' W 002°59'0 0.0
2017-Aug-13 13:58N 47°24' W 002°59'2 3.6
2017-Aug-13 13:30N 47°26' W 002°59'3 6.8
2017-Aug-13 13:00N 47°29' W 002°59'3 6.1
2017-Aug-13 12:30N 47°32' W 003°00'3 5.8
2017-Aug-13 12:00N 47°35' W 003°01'1 0.0
2017-Aug-12 12:05N 47°35' W 003°01'0 0.0
2017-Aug-12 11:59N 47°35' W 003°01'0 0.0
2017-Aug-12 11:29N 47°35' W 003°01'0 0.7
2017-Aug-12 11:00N 47°35' W 003°01'3 5.4
2017-Aug-12 10:30N 47°32' W 003°01'3 6.2
2017-Aug-12 10:00N 47°29' W 003°02'2 4.9
2017-Aug-12 09:30N 47°27' W 003°02'2 3.4
2017-Aug-12 09:00N 47°26' W 003°05'2 4.6
2017-Aug-12 08:30N 47°27' W 003°08'3 6.5
2017-Aug-12 08:00N 47°29' W 003°12'3 6.7
2017-Aug-12 07:30N 47°31' W 003°16'4 7.4
2017-Aug-12 07:00N 47°34' W 003°20'4 7.3
2017-Aug-12 06:30N 47°36' W 003°23'2 3.5
2017-Aug-12 06:00N 47°38' W 003°25'0 0.0
2017-Aug-11 10:25N 47°38' W 003°25'0 0.0
2017-Aug-11 10:00N 47°38' W 003°25'2 4.3
2017-Aug-11 09:30N 47°39' W 003°27'2 4.6
2017-Aug-11 09:00N 47°40' W 003°31'3 5.9
2017-Aug-11 08:30N 47°41' W 003°35'3 6.0
2017-Aug-11 08:00N 47°42' W 003°39'12 6.0
2017-Aug-11 05:58N 47°44' W 003°57'2 0.1
2017-Aug-10 09:58N 47°43' W 003°59'7 6.8
2017-Aug-10 08:58N 47°50' W 003°57'3 0.1
2017-Aug-08 05:43N 47°53' W 003°58'4 4.6
2017-Aug-08 04:53N 47°49' W 003°59'7 5.4
2017-Aug-08 03:38N 47°45' W 004°07'4 6.3
2017-Aug-08 02:58N 47°45' W 004°13'6 5.9
2017-Aug-08 01:58N 47°46' W 004°22'6 5.4
2017-Aug-08 00:53N 47°50' W 004°28'5 5.4
2017-Aug-07 23:58N 47°53' W 004°33'2 5.0
2017-Aug-07 23:29N 47°55' W 004°36'2 4.5
2017-Aug-07 23:00N 47°56' W 004°38'2 4.2
2017-Aug-07 22:30N 47°58' W 004°41'2 4.3
2017-Aug-07 22:00N 47°59' W 004°43'2 4.5
2017-Aug-07 21:30N 48°01' W 004°45'3 6.1
2017-Aug-07 21:01N 48°04' W 004°46'4 8.3
2017-Aug-07 20:31N 48°08' W 004°44'4 8.4
2017-Aug-07 20:00N 48°12' W 004°43'4 8.2
2017-Aug-07 19:30N 48°16' W 004°40'3 6.7
2017-Aug-07 19:00N 48°17' W 004°35'0 0.1
2017-Aug-07 18:30N 48°17' W 004°35'2 4.3
2017-Aug-07 18:00N 48°18' W 004°38'3 6.8
2017-Aug-07 17:30N 48°18' W 004°43'3 6.4
2017-Aug-07 17:00N 48°20' W 004°47'4 7.4
2017-Aug-07 16:29N 48°23' W 004°49'3 6.2
2017-Aug-07 15:59N 48°26' W 004°50'3 5.7
2017-Aug-07 15:30N 48°29' W 004°49'2 4.7
2017-Aug-07 15:00N 48°31' W 004°48'3 5.0
2017-Aug-07 14:30N 48°33' W 004°45'2 4.5
2017-Aug-07 14:01N 48°35' W 004°43'3 5.4
2017-Aug-07 13:30N 48°37' W 004°40'2 4.3
2017-Aug-07 13:00N 48°37' W 004°37'1 0.3
2017-Aug-07 08:18N 48°37' W 004°35'2 4.8
2017-Aug-07 07:58N 48°37' W 004°38'2 5.1
2017-Aug-07 07:29N 48°40' W 004°36'  

Dump ship's entire track history